sensor_id;sensor_type;location;lat;lon;timestamp;P1;durP1;ratioP1;P2;durP2;ratioP2
44925;SDS011;30662;51.210;7.656;2023-03-19T00:02:18;4.95;;;1.67;;
44925;SDS011;30662;51.210;7.656;2023-03-19T00:04:45;7.47;;;1.75;;
44925;SDS011;30662;51.210;7.656;2023-03-19T00:07:13;5.00;;;1.58;;
44925;SDS011;30662;51.210;7.656;2023-03-19T00:09:40;10.15;;;1.83;;
44925;SDS011;30662;51.210;7.656;2023-03-19T00:12:06;3.92;;;1.67;;
44925;SDS011;30662;51.210;7.656;2023-03-19T00:14:33;3.65;;;1.52;;
44925;SDS011;30662;51.210;7.656;2023-03-19T00:16:59;5.85;;;1.73;;
44925;SDS011;30662;51.210;7.656;2023-03-19T00:19:26;5.57;;;1.60;;
44925;SDS011;30662;51.210;7.656;2023-03-19T00:21:52;8.55;;;2.03;;
44925;SDS011;30662;51.210;7.656;2023-03-19T00:24:18;5.10;;;2.38;;
44925;SDS011;30662;51.210;7.656;2023-03-19T00:26:45;5.47;;;1.73;;
44925;SDS011;30662;51.210;7.656;2023-03-19T00:29:11;4.97;;;1.70;;
44925;SDS011;30662;51.210;7.656;2023-03-19T00:31:37;5.38;;;1.70;;
44925;SDS011;30662;51.210;7.656;2023-03-19T00:34:05;6.15;;;2.00;;
44925;SDS011;30662;51.210;7.656;2023-03-19T00:36:31;4.82;;;1.50;;
44925;SDS011;30662;51.210;7.656;2023-03-19T00:38:57;2.53;;;1.40;;
44925;SDS011;30662;51.210;7.656;2023-03-19T00:41:23;4.78;;;1.98;;
44925;SDS011;30662;51.210;7.656;2023-03-19T00:43:53;6.32;;;2.35;;
44925;SDS011;30662;51.210;7.656;2023-03-19T00:46:20;6.13;;;1.60;;
44925;SDS011;30662;51.210;7.656;2023-03-19T00:48:46;2.95;;;1.30;;
44925;SDS011;30662;51.210;7.656;2023-03-19T00:51:12;3.60;;;1.70;;
44925;SDS011;30662;51.210;7.656;2023-03-19T00:53:38;5.47;;;1.50;;
44925;SDS011;30662;51.210;7.656;2023-03-19T00:56:06;4.70;;;1.50;;
44925;SDS011;30662;51.210;7.656;2023-03-19T00:58:33;6.07;;;1.30;;
44925;SDS011;30662;51.210;7.656;2023-03-19T01:01:00;6.10;;;1.70;;
44925;SDS011;30662;51.210;7.656;2023-03-19T01:03:26;3.72;;;1.50;;
44925;SDS011;30662;51.210;7.656;2023-03-19T01:05:52;3.38;;;1.85;;
44925;SDS011;30662;51.210;7.656;2023-03-19T01:08:18;5.20;;;1.48;;
44925;SDS011;30662;51.210;7.656;2023-03-19T01:10:44;7.60;;;1.92;;
44925;SDS011;30662;51.210;7.656;2023-03-19T01:13:11;2.47;;;1.30;;
44925;SDS011;30662;51.210;7.656;2023-03-19T01:15:41;5.70;;;1.52;;
44925;SDS011;30662;51.210;7.656;2023-03-19T01:18:09;3.75;;;1.80;;
44925;SDS011;30662;51.210;7.656;2023-03-19T01:20:36;4.07;;;1.73;;
44925;SDS011;30662;51.210;7.656;2023-03-19T01:23:03;7.20;;;2.20;;
44925;SDS011;30662;51.210;7.656;2023-03-19T01:25:31;6.43;;;1.98;;
44925;SDS011;30662;51.210;7.656;2023-03-19T01:27:57;4.10;;;2.03;;
44925;SDS011;30662;51.210;7.656;2023-03-19T01:30:23;4.88;;;1.90;;
44925;SDS011;30662;51.210;7.656;2023-03-19T01:32:49;4.40;;;1.75;;
44925;SDS011;30662;51.210;7.656;2023-03-19T01:35:15;6.15;;;2.42;;
44925;SDS011;30662;51.210;7.656;2023-03-19T01:37:41;6.53;;;2.08;;
44925;SDS011;30662;51.210;7.656;2023-03-19T01:40:07;6.40;;;2.05;;
44925;SDS011;30662;51.210;7.656;2023-03-19T01:42:55;6.82;;;1.70;;
44925;SDS011;30662;51.210;7.656;2023-03-19T01:45:40;5.53;;;1.65;;
44925;SDS011;30662;51.210;7.656;2023-03-19T01:48:11;4.00;;;1.60;;
44925;SDS011;30662;51.210;7.656;2023-03-19T01:50:43;2.50;;;1.58;;
44925;SDS011;30662;51.210;7.656;2023-03-19T01:53:11;3.65;;;2.28;;
44925;SDS011;30662;51.210;7.656;2023-03-19T01:55:40;4.57;;;1.58;;
44925;SDS011;30662;51.210;7.656;2023-03-19T01:58:06;5.00;;;1.98;;
44925;SDS011;30662;51.210;7.656;2023-03-19T02:00:34;4.20;;;1.95;;
44925;SDS011;30662;51.210;7.656;2023-03-19T02:03:02;5.78;;;2.20;;
44925;SDS011;30662;51.210;7.656;2023-03-19T02:05:28;4.22;;;2.00;;
44925;SDS011;30662;51.210;7.656;2023-03-19T02:07:57;8.40;;;2.03;;
44925;SDS011;30662;51.210;7.656;2023-03-19T02:10:26;3.85;;;2.13;;
44925;SDS011;30662;51.210;7.656;2023-03-19T02:12:53;2.15;;;1.50;;
44925;SDS011;30662;51.210;7.656;2023-03-19T02:15:19;6.30;;;2.00;;
44925;SDS011;30662;51.210;7.656;2023-03-19T02:17:45;7.05;;;2.20;;
44925;SDS011;30662;51.210;7.656;2023-03-19T02:25:49;6.05;;;2.17;;
44925;SDS011;30662;51.210;7.656;2023-03-19T02:28:21;4.38;;;2.08;;
44925;SDS011;30662;51.210;7.656;2023-03-19T02:30:48;6.70;;;2.60;;
44925;SDS011;30662;51.210;7.656;2023-03-19T02:33:15;7.15;;;2.30;;
44925;SDS011;30662;51.210;7.656;2023-03-19T02:35:43;4.70;;;2.40;;
44925;SDS011;30662;51.210;7.656;2023-03-19T02:38:11;4.97;;;2.85;;
44925;SDS011;30662;51.210;7.656;2023-03-19T02:41:12;4.10;;;1.65;;
44925;SDS011;30662;51.210;7.656;2023-03-19T02:43:33;7.68;;;2.35;;
44925;SDS011;30662;51.210;7.656;2023-03-19T02:46:03;4.20;;;2.05;;
44925;SDS011;30662;51.210;7.656;2023-03-19T02:48:32;4.88;;;1.88;;
44925;SDS011;30662;51.210;7.656;2023-03-19T02:50:59;6.15;;;2.05;;
44925;SDS011;30662;51.210;7.656;2023-03-19T02:53:25;6.47;;;2.58;;
44925;SDS011;30662;51.210;7.656;2023-03-19T02:55:51;3.88;;;1.92;;
44925;SDS011;30662;51.210;7.656;2023-03-19T02:58:17;3.92;;;1.75;;
44925;SDS011;30662;51.210;7.656;2023-03-19T03:00:43;5.45;;;2.40;;
44925;SDS011;30662;51.210;7.656;2023-03-19T03:03:09;4.75;;;1.92;;
44925;SDS011;30662;51.210;7.656;2023-03-19T03:05:36;7.35;;;1.60;;
44925;SDS011;30662;51.210;7.656;2023-03-19T03:08:02;6.13;;;1.67;;
44925;SDS011;30662;51.210;7.656;2023-03-19T03:10:29;3.35;;;2.13;;
44925;SDS011;30662;51.210;7.656;2023-03-19T03:12:56;4.50;;;2.03;;
44925;SDS011;30662;51.210;7.656;2023-03-19T03:15:30;6.22;;;2.42;;
44925;SDS011;30662;51.210;7.656;2023-03-19T03:18:16;5.57;;;2.45;;
44925;SDS011;30662;51.210;7.656;2023-03-19T03:20:46;5.50;;;2.25;;
44925;SDS011;30662;51.210;7.656;2023-03-19T03:23:12;4.65;;;1.90;;
44925;SDS011;30662;51.210;7.656;2023-03-19T03:25:38;6.18;;;2.00;;
44925;SDS011;30662;51.210;7.656;2023-03-19T03:28:04;5.13;;;2.00;;
44925;SDS011;30662;51.210;7.656;2023-03-19T03:30:30;5.93;;;2.30;;
44925;SDS011;30662;51.210;7.656;2023-03-19T03:32:55;4.47;;;1.85;;
44925;SDS011;30662;51.210;7.656;2023-03-19T03:35:21;6.05;;;2.67;;
44925;SDS011;30662;51.210;7.656;2023-03-19T03:37:48;4.95;;;2.38;;
44925;SDS011;30662;51.210;7.656;2023-03-19T03:40:15;4.78;;;1.83;;
44925;SDS011;30662;51.210;7.656;2023-03-19T03:42:42;4.38;;;2.35;;
44925;SDS011;30662;51.210;7.656;2023-03-19T03:45:08;3.70;;;1.80;;
44925;SDS011;30662;51.210;7.656;2023-03-19T03:47:35;6.47;;;2.60;;
44925;SDS011;30662;51.210;7.656;2023-03-19T03:50:02;4.55;;;1.95;;
44925;SDS011;30662;51.210;7.656;2023-03-19T03:52:30;6.15;;;2.17;;
44925;SDS011;30662;51.210;7.656;2023-03-19T03:54:58;5.82;;;2.20;;
44925;SDS011;30662;51.210;7.656;2023-03-19T03:57:25;3.50;;;2.13;;
44925;SDS011;30662;51.210;7.656;2023-03-19T03:59:52;5.22;;;1.95;;
44925;SDS011;30662;51.210;7.656;2023-03-19T04:02:18;3.70;;;1.70;;
44925;SDS011;30662;51.210;7.656;2023-03-19T04:04:45;3.97;;;1.77;;
44925;SDS011;30662;51.210;7.656;2023-03-19T04:07:13;8.10;;;2.13;;
44925;SDS011;30662;51.210;7.656;2023-03-19T04:09:38;5.85;;;2.05;;
44925;SDS011;30662;51.210;7.656;2023-03-19T04:12:04;4.50;;;2.33;;
44925;SDS011;30662;51.210;7.656;2023-03-19T04:14:30;3.30;;;2.03;;
44925;SDS011;30662;51.210;7.656;2023-03-19T04:16:56;3.55;;;2.15;;
44925;SDS011;30662;51.210;7.656;2023-03-19T04:19:22;6.72;;;2.42;;
44925;SDS011;30662;51.210;7.656;2023-03-19T04:21:48;5.15;;;2.10;;
44925;SDS011;30662;51.210;7.656;2023-03-19T04:24:14;5.53;;;2.17;;
44925;SDS011;30662;51.210;7.656;2023-03-19T04:26:40;7.18;;;3.00;;
44925;SDS011;30662;51.210;7.656;2023-03-19T04:29:06;5.32;;;2.20;;
44925;SDS011;30662;51.210;7.656;2023-03-19T04:31:33;4.35;;;1.80;;
44925;SDS011;30662;51.210;7.656;2023-03-19T04:33:59;5.63;;;1.90;;
44925;SDS011;30662;51.210;7.656;2023-03-19T04:36:25;4.10;;;2.10;;
44925;SDS011;30662;51.210;7.656;2023-03-19T04:38:51;5.22;;;2.00;;
44925;SDS011;30662;51.210;7.656;2023-03-19T04:41:17;3.13;;;1.70;;
44925;SDS011;30662;51.210;7.656;2023-03-19T04:43:42;5.60;;;2.20;;
44925;SDS011;30662;51.210;7.656;2023-03-19T04:46:10;4.07;;;1.90;;
44925;SDS011;30662;51.210;7.656;2023-03-19T04:48:36;5.93;;;1.70;;
44925;SDS011;30662;51.210;7.656;2023-03-19T04:51:04;4.50;;;1.95;;
44925;SDS011;30662;51.210;7.656;2023-03-19T04:53:33;6.50;;;2.08;;
44925;SDS011;30662;51.210;7.656;2023-03-19T04:56:00;3.28;;;1.50;;
44925;SDS011;30662;51.210;7.656;2023-03-19T04:58:27;4.28;;;1.95;;
44925;SDS011;30662;51.210;7.656;2023-03-19T05:00:53;4.25;;;2.03;;
44925;SDS011;30662;51.210;7.656;2023-03-19T05:03:18;3.45;;;1.80;;
44925;SDS011;30662;51.210;7.656;2023-03-19T05:05:44;3.70;;;1.63;;
44925;SDS011;30662;51.210;7.656;2023-03-19T05:08:10;3.45;;;1.88;;
44925;SDS011;30662;51.210;7.656;2023-03-19T05:10:38;4.72;;;2.72;;
44925;SDS011;30662;51.210;7.656;2023-03-19T05:13:04;2.65;;;1.73;;
44925;SDS011;30662;51.210;7.656;2023-03-19T05:15:31;4.13;;;1.70;;
44925;SDS011;30662;51.210;7.656;2023-03-19T05:17:57;2.75;;;1.48;;
44925;SDS011;30662;51.210;7.656;2023-03-19T05:20:23;6.05;;;2.00;;
44925;SDS011;30662;51.210;7.656;2023-03-19T05:22:50;5.07;;;1.80;;
44925;SDS011;30662;51.210;7.656;2023-03-19T05:25:17;4.80;;;2.42;;
44925;SDS011;30662;51.210;7.656;2023-03-19T05:27:44;5.25;;;1.80;;
44925;SDS011;30662;51.210;7.656;2023-03-19T05:30:10;3.83;;;1.98;;
44925;SDS011;30662;51.210;7.656;2023-03-19T05:32:36;5.88;;;2.33;;
44925;SDS011;30662;51.210;7.656;2023-03-19T05:35:03;5.60;;;2.03;;
44925;SDS011;30662;51.210;7.656;2023-03-19T05:37:29;3.08;;;1.52;;
44925;SDS011;30662;51.210;7.656;2023-03-19T05:39:56;4.28;;;2.20;;
44925;SDS011;30662;51.210;7.656;2023-03-19T05:42:22;3.35;;;2.03;;
44925;SDS011;30662;51.210;7.656;2023-03-19T05:44:47;3.47;;;2.05;;
44925;SDS011;30662;51.210;7.656;2023-03-19T05:47:13;3.63;;;1.88;;
44925;SDS011;30662;51.210;7.656;2023-03-19T05:49:39;5.30;;;1.98;;
44925;SDS011;30662;51.210;7.656;2023-03-19T05:52:05;4.93;;;2.08;;
44925;SDS011;30662;51.210;7.656;2023-03-19T05:54:32;4.18;;;1.45;;
44925;SDS011;30662;51.210;7.656;2023-03-19T05:56:58;3.28;;;1.92;;
44925;SDS011;30662;51.210;7.656;2023-03-19T05:59:24;3.97;;;2.05;;
44925;SDS011;30662;51.210;7.656;2023-03-19T06:01:50;6.07;;;2.28;;
44925;SDS011;30662;51.210;7.656;2023-03-19T06:04:16;2.55;;;1.65;;
44925;SDS011;30662;51.210;7.656;2023-03-19T06:06:42;4.70;;;1.98;;
44925;SDS011;30662;51.210;7.656;2023-03-19T06:09:07;3.00;;;1.90;;
44925;SDS011;30662;51.210;7.656;2023-03-19T06:11:33;6.28;;;2.55;;
44925;SDS011;30662;51.210;7.656;2023-03-19T06:13:59;4.43;;;2.50;;
44925;SDS011;30662;51.210;7.656;2023-03-19T06:16:25;5.20;;;2.22;;
44925;SDS011;30662;51.210;7.656;2023-03-19T06:18:51;2.80;;;2.25;;
44925;SDS011;30662;51.210;7.656;2023-03-19T06:21:17;5.68;;;1.95;;
44925;SDS011;30662;51.210;7.656;2023-03-19T06:23:43;7.35;;;2.15;;
44925;SDS011;30662;51.210;7.656;2023-03-19T06:26:09;5.57;;;2.38;;
44925;SDS011;30662;51.210;7.656;2023-03-19T06:28:35;3.70;;;2.30;;
44925;SDS011;30662;51.210;7.656;2023-03-19T06:31:00;2.78;;;1.88;;
44925;SDS011;30662;51.210;7.656;2023-03-19T06:33:27;6.05;;;2.55;;
44925;SDS011;30662;51.210;7.656;2023-03-19T06:35:56;3.45;;;1.80;;
44925;SDS011;30662;51.210;7.656;2023-03-19T06:38:23;3.45;;;1.70;;
44925;SDS011;30662;51.210;7.656;2023-03-19T06:40:48;4.88;;;2.53;;
44925;SDS011;30662;51.210;7.656;2023-03-19T06:43:14;4.43;;;1.90;;
44925;SDS011;30662;51.210;7.656;2023-03-19T06:45:40;5.95;;;3.30;;
44925;SDS011;30662;51.210;7.656;2023-03-19T06:48:06;5.15;;;2.47;;
44925;SDS011;30662;51.210;7.656;2023-03-19T06:50:32;4.97;;;2.38;;
44925;SDS011;30662;51.210;7.656;2023-03-19T06:52:58;5.70;;;2.25;;
44925;SDS011;30662;51.210;7.656;2023-03-19T06:55:24;4.55;;;2.55;;
44925;SDS011;30662;51.210;7.656;2023-03-19T06:57:50;3.63;;;1.85;;
44925;SDS011;30662;51.210;7.656;2023-03-19T07:00:16;4.70;;;2.58;;
44925;SDS011;30662;51.210;7.656;2023-03-19T07:02:43;3.83;;;1.83;;
44925;SDS011;30662;51.210;7.656;2023-03-19T07:05:09;5.97;;;2.28;;
44925;SDS011;30662;51.210;7.656;2023-03-19T07:07:36;5.47;;;2.53;;
44925;SDS011;30662;51.210;7.656;2023-03-19T07:10:01;5.82;;;2.97;;
44925;SDS011;30662;51.210;7.656;2023-03-19T07:12:28;4.30;;;2.40;;
44925;SDS011;30662;51.210;7.656;2023-03-19T07:14:54;5.53;;;2.90;;
44925;SDS011;30662;51.210;7.656;2023-03-19T07:17:21;13.27;;;3.60;;
44925;SDS011;30662;51.210;7.656;2023-03-19T07:19:47;4.47;;;2.03;;
44925;SDS011;30662;51.210;7.656;2023-03-19T07:22:13;4.00;;;2.05;;
44925;SDS011;30662;51.210;7.656;2023-03-19T07:24:39;6.28;;;4.35;;
44925;SDS011;30662;51.210;7.656;2023-03-19T07:27:05;6.90;;;2.42;;
44925;SDS011;30662;51.210;7.656;2023-03-19T07:29:31;2.80;;;1.55;;
44925;SDS011;30662;51.210;7.656;2023-03-19T07:31:57;3.42;;;2.05;;
44925;SDS011;30662;51.210;7.656;2023-03-19T07:34:23;3.72;;;1.88;;
44925;SDS011;30662;51.210;7.656;2023-03-19T07:36:49;3.35;;;1.92;;
44925;SDS011;30662;51.210;7.656;2023-03-19T07:39:15;2.65;;;1.45;;
44925;SDS011;30662;51.210;7.656;2023-03-19T07:41:41;3.33;;;1.70;;
44925;SDS011;30662;51.210;7.656;2023-03-19T07:44:09;3.30;;;1.88;;
44925;SDS011;30662;51.210;7.656;2023-03-19T07:46:35;6.22;;;2.00;;
44925;SDS011;30662;51.210;7.656;2023-03-19T07:49:01;3.70;;;1.52;;
44925;SDS011;30662;51.210;7.656;2023-03-19T07:51:27;7.97;;;3.97;;
44925;SDS011;30662;51.210;7.656;2023-03-19T07:53:53;4.70;;;2.95;;
44925;SDS011;30662;51.210;7.656;2023-03-19T07:56:19;3.55;;;1.70;;
44925;SDS011;30662;51.210;7.656;2023-03-19T07:58:45;2.13;;;1.50;;
44925;SDS011;30662;51.210;7.656;2023-03-19T08:01:11;2.78;;;1.40;;
44925;SDS011;30662;51.210;7.656;2023-03-19T08:03:37;3.90;;;2.33;;
44925;SDS011;30662;51.210;7.656;2023-03-19T08:06:04;3.22;;;1.92;;
44925;SDS011;30662;51.210;7.656;2023-03-19T08:08:30;5.38;;;1.65;;
44925;SDS011;30662;51.210;7.656;2023-03-19T08:10:56;3.28;;;1.83;;
44925;SDS011;30662;51.210;7.656;2023-03-19T08:13:22;4.28;;;1.98;;
44925;SDS011;30662;51.210;7.656;2023-03-19T08:15:48;3.83;;;2.40;;
44925;SDS011;30662;51.210;7.656;2023-03-19T08:18:15;4.35;;;2.00;;
44925;SDS011;30662;51.210;7.656;2023-03-19T08:20:42;4.65;;;1.95;;
44925;SDS011;30662;51.210;7.656;2023-03-19T08:23:09;3.50;;;2.20;;
44925;SDS011;30662;51.210;7.656;2023-03-19T08:25:36;3.33;;;1.90;;
44925;SDS011;30662;51.210;7.656;2023-03-19T08:28:02;4.20;;;1.90;;
44925;SDS011;30662;51.210;7.656;2023-03-19T08:30:28;4.93;;;2.15;;
44925;SDS011;30662;51.210;7.656;2023-03-19T08:32:54;4.78;;;2.10;;
44925;SDS011;30662;51.210;7.656;2023-03-19T08:35:20;4.43;;;1.80;;
44925;SDS011;30662;51.210;7.656;2023-03-19T08:37:46;4.20;;;2.10;;
44925;SDS011;30662;51.210;7.656;2023-03-19T08:40:12;4.32;;;1.83;;
44925;SDS011;30662;51.210;7.656;2023-03-19T08:42:38;3.55;;;2.50;;
44925;SDS011;30662;51.210;7.656;2023-03-19T08:45:10;2.92;;;2.00;;
44925;SDS011;30662;51.210;7.656;2023-03-19T08:47:37;5.45;;;2.83;;
44925;SDS011;30662;51.210;7.656;2023-03-19T08:50:04;5.30;;;2.78;;
44925;SDS011;30662;51.210;7.656;2023-03-19T08:52:31;2.13;;;1.73;;
44925;SDS011;30662;51.210;7.656;2023-03-19T08:54:57;3.75;;;1.67;;
44925;SDS011;30662;51.210;7.656;2023-03-19T08:57:23;2.47;;;2.13;;
44925;SDS011;30662;51.210;7.656;2023-03-19T08:59:49;3.15;;;1.90;;
44925;SDS011;30662;51.210;7.656;2023-03-19T09:02:19;2.63;;;2.08;;
44925;SDS011;30662;51.210;7.656;2023-03-19T09:04:45;3.35;;;1.70;;
44925;SDS011;30662;51.210;7.656;2023-03-19T09:07:11;4.65;;;2.00;;
44925;SDS011;30662;51.210;7.656;2023-03-19T09:09:40;2.30;;;1.52;;
44925;SDS011;30662;51.210;7.656;2023-03-19T09:12:10;3.33;;;1.67;;
44925;SDS011;30662;51.210;7.656;2023-03-19T09:14:38;3.45;;;2.03;;
44925;SDS011;30662;51.210;7.656;2023-03-19T09:17:04;3.60;;;1.88;;
44925;SDS011;30662;51.210;7.656;2023-03-19T09:19:31;3.30;;;1.60;;
44925;SDS011;30662;51.210;7.656;2023-03-19T09:21:58;2.65;;;1.35;;
44925;SDS011;30662;51.210;7.656;2023-03-19T09:24:24;2.47;;;1.35;;
44925;SDS011;30662;51.210;7.656;2023-03-19T09:26:51;2.97;;;1.85;;
44925;SDS011;30662;51.210;7.656;2023-03-19T09:29:17;2.58;;;1.65;;
44925;SDS011;30662;51.210;7.656;2023-03-19T09:31:43;3.85;;;2.42;;
44925;SDS011;30662;51.210;7.656;2023-03-19T09:34:09;2.33;;;1.60;;
44925;SDS011;30662;51.210;7.656;2023-03-19T09:36:36;4.20;;;2.22;;
44925;SDS011;30662;51.210;7.656;2023-03-19T09:39:03;3.28;;;2.30;;
44925;SDS011;30662;51.210;7.656;2023-03-19T09:46:52;4.45;;;2.65;;
44925;SDS011;30662;51.210;7.656;2023-03-19T09:49:24;2.97;;;1.92;;
44925;SDS011;30662;51.210;7.656;2023-03-19T09:51:57;3.75;;;1.80;;
44925;SDS011;30662;51.210;7.656;2023-03-19T09:54:44;3.15;;;2.85;;
44925;SDS011;30662;51.210;7.656;2023-03-19T09:57:13;2.78;;;1.80;;
44925;SDS011;30662;51.210;7.656;2023-03-19T09:59:40;2.30;;;1.80;;
44925;SDS011;30662;51.210;7.656;2023-03-19T10:15:44;3.35;;;2.10;;
44925;SDS011;30662;51.210;7.656;2023-03-19T10:18:18;2.45;;;2.22;;
44925;SDS011;30662;51.210;7.656;2023-03-19T10:26:32;5.53;;;2.25;;
44925;SDS011;30662;51.210;7.656;2023-03-19T10:29:04;3.03;;;2.03;;
44925;SDS011;30662;51.210;7.656;2023-03-19T10:31:51;3.63;;;1.90;;
44925;SDS011;30662;51.210;7.656;2023-03-19T10:39:38;2.40;;;2.20;;
44925;SDS011;30662;51.210;7.656;2023-03-19T10:42:09;3.08;;;2.10;;
44925;SDS011;30662;51.210;7.656;2023-03-19T10:44:44;2.97;;;1.85;;
44925;SDS011;30662;51.210;7.656;2023-03-19T10:47:15;3.67;;;2.15;;
44925;SDS011;30662;51.210;7.656;2023-03-19T10:49:44;3.92;;;2.75;;
44925;SDS011;30662;51.210;7.656;2023-03-19T10:52:28;3.92;;;2.40;;
44925;SDS011;30662;51.210;7.656;2023-03-19T10:55:01;4.07;;;2.50;;
44925;SDS011;30662;51.210;7.656;2023-03-19T10:57:28;4.38;;;2.30;;
44925;SDS011;30662;51.210;7.656;2023-03-19T10:59:59;2.65;;;1.75;;
44925;SDS011;30662;51.210;7.656;2023-03-19T11:02:28;2.72;;;1.92;;
44925;SDS011;30662;51.210;7.656;2023-03-19T11:05:06;2.33;;;1.90;;
44925;SDS011;30662;51.210;7.656;2023-03-19T11:07:50;1.95;;;1.65;;
44925;SDS011;30662;51.210;7.656;2023-03-19T11:10:21;1.60;;;1.33;;
44925;SDS011;30662;51.210;7.656;2023-03-19T11:12:59;4.43;;;2.08;;
44925;SDS011;30662;51.210;7.656;2023-03-19T11:15:37;2.70;;;2.50;;
44925;SDS011;30662;51.210;7.656;2023-03-19T11:18:12;3.20;;;1.70;;
44925;SDS011;30662;51.210;7.656;2023-03-19T11:20:47;2.80;;;2.13;;
44925;SDS011;30662;51.210;7.656;2023-03-19T11:23:25;1.77;;;1.67;;
44925;SDS011;30662;51.210;7.656;2023-03-19T11:25:52;4.50;;;2.08;;
44925;SDS011;30662;51.210;7.656;2023-03-19T11:28:20;3.35;;;2.00;;
44925;SDS011;30662;51.210;7.656;2023-03-19T11:36:30;4.10;;;2.13;;
44925;SDS011;30662;51.210;7.656;2023-03-19T11:41:59;3.05;;;2.25;;
44925;SDS011;30662;51.210;7.656;2023-03-19T11:47:31;3.13;;;2.00;;
44925;SDS011;30662;51.210;7.656;2023-03-19T11:50:01;2.35;;;1.67;;
44925;SDS011;30662;51.210;7.656;2023-03-19T11:55:32;2.50;;;1.73;;
44925;SDS011;30662;51.210;7.656;2023-03-19T12:01:03;3.97;;;1.63;;
44925;SDS011;30662;51.210;7.656;2023-03-19T12:03:56;2.45;;;2.00;;
44925;SDS011;30662;51.210;7.656;2023-03-19T12:10:06;1.38;;;1.15;;
44925;SDS011;30662;51.210;7.656;2023-03-19T12:20:30;2.80;;;1.70;;
44925;SDS011;30662;51.210;7.656;2023-03-19T12:28:30;2.80;;;1.40;;
44925;SDS011;30662;51.210;7.656;2023-03-19T12:34:36;2.80;;;1.20;;
44925;SDS011;30662;51.210;7.656;2023-03-19T12:36:53;1.80;;;1.30;;
44925;SDS011;30662;51.210;7.656;2023-03-19T12:39:32;2.70;;;1.10;;
44925;SDS011;30662;51.210;7.656;2023-03-19T12:42:01;2.78;;;1.50;;
44925;SDS011;30662;51.210;7.656;2023-03-19T12:44:33;2.40;;;1.05;;
44925;SDS011;30662;51.210;7.656;2023-03-19T12:47:07;1.30;;;1.20;;
44925;SDS011;30662;51.210;7.656;2023-03-19T12:52:33;2.17;;;0.90;;
44925;SDS011;30662;51.210;7.656;2023-03-19T12:57:46;0.70;;;0.70;;
44925;SDS011;30662;51.210;7.656;2023-03-19T13:06:22;1.17;;;0.80;;
44925;SDS011;30662;51.210;7.656;2023-03-19T13:08:58;1.75;;;0.77;;
44925;SDS011;30662;51.210;7.656;2023-03-19T13:11:32;1.15;;;0.80;;
44925;SDS011;30662;51.210;7.656;2023-03-19T13:19:45;0.80;;;0.55;;
44925;SDS011;30662;51.210;7.656;2023-03-19T13:22:16;1.45;;;0.90;;
44925;SDS011;30662;51.210;7.656;2023-03-19T13:24:46;2.45;;;0.95;;
44925;SDS011;30662;51.210;7.656;2023-03-19T13:27:21;1.17;;;0.60;;
44925;SDS011;30662;51.210;7.656;2023-03-19T13:32:40;1.73;;;0.60;;
44925;SDS011;30662;51.210;7.656;2023-03-19T13:38:25;2.92;;;0.60;;
44925;SDS011;30662;51.210;7.656;2023-03-19T13:40:56;2.08;;;0.70;;
44925;SDS011;30662;51.210;7.656;2023-03-19T13:51:01;1.30;;;0.60;;
44925;SDS011;30662;51.210;7.656;2023-03-19T13:56:10;2.78;;;0.50;;
44925;SDS011;30662;51.210;7.656;2023-03-19T13:59:18;1.67;;;0.65;;
44925;SDS011;30662;51.210;7.656;2023-03-19T14:01:49;1.53;;;0.43;;
44925;SDS011;30662;51.210;7.656;2023-03-19T14:17:59;0.55;;;0.55;;
44925;SDS011;30662;51.210;7.656;2023-03-19T14:23:00;0.60;;;0.40;;
44925;SDS011;30662;51.210;7.656;2023-03-19T14:31:01;1.90;;;0.70;;
44925;SDS011;30662;51.210;7.656;2023-03-19T14:33:31;1.60;;;1.20;;
44925;SDS011;30662;51.210;7.656;2023-03-19T14:36:03;3.13;;;2.55;;
44925;SDS011;30662;51.210;7.656;2023-03-19T14:41:28;0.70;;;0.70;;
44925;SDS011;30662;51.210;7.656;2023-03-19T14:52:04;1.58;;;0.57;;
44925;SDS011;30662;51.210;7.656;2023-03-19T14:57:34;0.80;;;0.60;;
44925;SDS011;30662;51.210;7.656;2023-03-19T15:00:00;1.40;;;1.15;;
44925;SDS011;30662;51.210;7.656;2023-03-19T15:05:02;1.10;;;0.60;;
44925;SDS011;30662;51.210;7.656;2023-03-19T15:07:33;2.20;;;0.60;;
44925;SDS011;30662;51.210;7.656;2023-03-19T15:10:05;0.45;;;0.45;;
44925;SDS011;30662;51.210;7.656;2023-03-19T15:12:50;0.65;;;0.52;;
44925;SDS011;30662;51.210;7.656;2023-03-19T15:18:15;1.02;;;0.70;;
44925;SDS011;30662;51.210;7.656;2023-03-19T15:20:51;1.50;;;0.90;;
44925;SDS011;30662;51.210;7.656;2023-03-19T15:23:19;0.82;;;0.40;;
44925;SDS011;30662;51.210;7.656;2023-03-19T15:25:54;1.20;;;0.60;;
44925;SDS011;30662;51.210;7.656;2023-03-19T15:28:29;2.13;;;1.17;;
44925;SDS011;30662;51.210;7.656;2023-03-19T15:31:10;2.97;;;1.17;;
44925;SDS011;30662;51.210;7.656;2023-03-19T15:33:56;1.67;;;1.10;;
44925;SDS011;30662;51.210;7.656;2023-03-19T15:36:26;1.55;;;1.00;;
44925;SDS011;30662;51.210;7.656;2023-03-19T15:41:31;2.30;;;1.00;;
44925;SDS011;30662;51.210;7.656;2023-03-19T15:43:59;1.02;;;0.70;;
44925;SDS011;30662;51.210;7.656;2023-03-19T15:46:30;1.52;;;0.70;;
44925;SDS011;30662;51.210;7.656;2023-03-19T15:49:05;1.13;;;0.75;;
44925;SDS011;30662;51.210;7.656;2023-03-19T15:51:54;0.90;;;0.90;;
44925;SDS011;30662;51.210;7.656;2023-03-19T15:54:24;1.45;;;0.90;;
44925;SDS011;30662;51.210;7.656;2023-03-19T15:56:50;1.33;;;0.90;;
44925;SDS011;30662;51.210;7.656;2023-03-19T15:59:17;1.63;;;0.85;;
44925;SDS011;30662;51.210;7.656;2023-03-19T16:01:46;1.23;;;0.80;;
44925;SDS011;30662;51.210;7.656;2023-03-19T16:04:14;1.08;;;0.85;;
44925;SDS011;30662;51.210;7.656;2023-03-19T16:06:46;1.52;;;0.77;;
44925;SDS011;30662;51.210;7.656;2023-03-19T16:11:46;1.35;;;0.85;;
44925;SDS011;30662;51.210;7.656;2023-03-19T16:16:50;3.00;;;1.08;;
44925;SDS011;30662;51.210;7.656;2023-03-19T16:19:28;1.17;;;0.70;;
44925;SDS011;30662;51.210;7.656;2023-03-19T16:22:03;1.17;;;0.90;;
44925;SDS011;30662;51.210;7.656;2023-03-19T16:24:37;3.42;;;1.52;;
44925;SDS011;30662;51.210;7.656;2023-03-19T16:27:10;1.90;;;1.20;;
44925;SDS011;30662;51.210;7.656;2023-03-19T16:29:41;0.88;;;0.70;;
44925;SDS011;30662;51.210;7.656;2023-03-19T16:34:40;2.25;;;1.27;;
44925;SDS011;30662;51.210;7.656;2023-03-19T16:47:43;1.80;;;1.33;;
44925;SDS011;30662;51.210;7.656;2023-03-19T16:50:20;1.48;;;1.20;;
44925;SDS011;30662;51.210;7.656;2023-03-19T16:52:49;0.82;;;0.80;;
44925;SDS011;30662;51.210;7.656;2023-03-19T16:55:29;1.42;;;0.98;;
44925;SDS011;30662;51.210;7.656;2023-03-19T16:58:14;1.75;;;1.40;;
44925;SDS011;30662;51.210;7.656;2023-03-19T17:00:43;2.20;;;0.93;;
44925;SDS011;30662;51.210;7.656;2023-03-19T17:03:11;1.23;;;1.13;;
44925;SDS011;30662;51.210;7.656;2023-03-19T17:05:38;2.35;;;1.33;;
44925;SDS011;30662;51.210;7.656;2023-03-19T17:08:04;1.85;;;1.38;;
44925;SDS011;30662;51.210;7.656;2023-03-19T17:10:30;2.28;;;1.60;;
44925;SDS011;30662;51.210;7.656;2023-03-19T17:12:57;0.98;;;0.98;;
44925;SDS011;30662;51.210;7.656;2023-03-19T17:15:35;1.17;;;1.02;;
44925;SDS011;30662;51.210;7.656;2023-03-19T17:18:37;1.65;;;0.60;;
44925;SDS011;30662;51.210;7.656;2023-03-19T17:23:46;1.40;;;0.95;;
44925;SDS011;30662;51.210;7.656;2023-03-19T17:26:16;1.40;;;1.08;;
44925;SDS011;30662;51.210;7.656;2023-03-19T17:28:44;1.10;;;0.93;;
44925;SDS011;30662;51.210;7.656;2023-03-19T17:31:32;0.65;;;0.65;;
44925;SDS011;30662;51.210;7.656;2023-03-19T17:34:04;0.77;;;0.70;;
44925;SDS011;30662;51.210;7.656;2023-03-19T17:36:35;0.90;;;0.63;;
44925;SDS011;30662;51.210;7.656;2023-03-19T17:39:02;2.75;;;1.20;;
44925;SDS011;30662;51.210;7.656;2023-03-19T17:41:28;1.77;;;1.15;;
44925;SDS011;30662;51.210;7.656;2023-03-19T17:43:57;0.85;;;0.85;;
44925;SDS011;30662;51.210;7.656;2023-03-19T17:46:26;2.28;;;1.15;;
44925;SDS011;30662;51.210;7.656;2023-03-19T17:48:53;2.30;;;0.90;;
44925;SDS011;30662;51.210;7.656;2023-03-19T17:51:21;5.05;;;4.45;;